Kountze, Texas
Current Conditions -  °F | °C
As of 9:35 AM on Friday 24 Oct 2014 (Local Time) from KBMT Reporting Station
Clear Clear  
Wind Chill: 59°   Ceiling: Unl
Heat Index: 59°   Visibility: 10mi
Dew Point: 53°   Wind: 3mph
Humidity: 80%   Direction: 40°NE
Pressure: 30.18"   Gusts: NA
Location:  30.37°N, 94.31°W
Report Text: KBMT 241435Z AUTO 04003KT 10SM CLR 15/12 A3018 RMK AO2 T01500116
Loading
Personal Weather Stations






























Interactive Weather Map
Tropical Storm Tracking
New forecast layout! Learn more

10-Day Weather Forecast

Advertisements
Track Severe Weather on mobile